sensor_id;sensor_type;location;lat;lon;timestamp;temperature;humidity
72440;DHT22;60446;50.752;4.352;2024-03-08T00:00:11;3.60;99.90
72440;DHT22;60446;50.752;4.352;2024-03-08T00:02:42;3.60;99.90
72440;DHT22;60446;50.752;4.352;2024-03-08T00:05:11;3.50;99.90
72440;DHT22;60446;50.752;4.352;2024-03-08T00:07:39;3.50;99.90
72440;DHT22;60446;50.752;4.352;2024-03-08T00:10:10;3.50;99.90
72440;DHT22;60446;50.752;4.352;2024-03-08T00:12:41;3.40;99.90
72440;DHT22;60446;50.752;4.352;2024-03-08T00:15:11;3.40;99.90
72440;DHT22;60446;50.752;4.352;2024-03-08T00:17:43;3.40;99.90
72440;DHT22;60446;50.752;4.352;2024-03-08T00:20:11;3.40;99.90
72440;DHT22;60446;50.752;4.352;2024-03-08T00:22:41;3.40;99.90
72440;DHT22;60446;50.752;4.352;2024-03-08T00:25:08;3.30;99.90
72440;DHT22;60446;50.752;4.352;2024-03-08T00:27:37;3.30;99.90
72440;DHT22;60446;50.752;4.352;2024-03-08T00:30:05;3.30;99.90
72440;DHT22;60446;50.752;4.352;2024-03-08T00:32:34;3.30;99.90
72440;DHT22;60446;50.752;4.352;2024-03-08T00:35:02;3.30;99.90
72440;DHT22;60446;50.752;4.352;2024-03-08T00:37:29;3.30;99.90
72440;DHT22;60446;50.752;4.352;2024-03-08T00:39:58;3.20;99.90
72440;DHT22;60446;50.752;4.352;2024-03-08T00:42:26;3.20;99.90
72440;DHT22;60446;50.752;4.352;2024-03-08T00:44:54;3.20;99.90
72440;DHT22;60446;50.752;4.352;2024-03-08T00:47:21;3.20;99.90
72440;DHT22;60446;50.752;4.352;2024-03-08T00:49:48;3.20;99.90
72440;DHT22;60446;50.752;4.352;2024-03-08T00:52:16;3.20;99.90
72440;DHT22;60446;50.752;4.352;2024-03-08T00:54:46;3.10;99.90
72440;DHT22;60446;50.752;4.352;2024-03-08T00:57:14;3.10;99.90
72440;DHT22;60446;50.752;4.352;2024-03-08T00:59:41;3.10;99.90
72440;DHT22;60446;50.752;4.352;2024-03-08T01:02:10;3.20;99.90
72440;DHT22;60446;50.752;4.352;2024-03-08T01:04:37;3.20;99.90
72440;DHT22;60446;50.752;4.352;2024-03-08T01:07:05;3.10;99.90
72440;DHT22;60446;50.752;4.352;2024-03-08T01:09:32;3.10;99.90
72440;DHT22;60446;50.752;4.352;2024-03-08T01:11:59;3.10;99.90
72440;DHT22;60446;50.752;4.352;2024-03-08T01:14:28;3.00;99.90
72440;DHT22;60446;50.752;4.352;2024-03-08T01:16:58;3.00;99.90
72440;DHT22;60446;50.752;4.352;2024-03-08T01:19:27;3.00;99.90
72440;DHT22;60446;50.752;4.352;2024-03-08T01:21:57;3.00;99.90
72440;DHT22;60446;50.752;4.352;2024-03-08T01:24:25;3.00;99.90
72440;DHT22;60446;50.752;4.352;2024-03-08T01:26:52;2.90;99.90
72440;DHT22;60446;50.752;4.352;2024-03-08T01:29:19;2.90;99.90
72440;DHT22;60446;50.752;4.352;2024-03-08T01:31:47;2.90;99.90
72440;DHT22;60446;50.752;4.352;2024-03-08T01:34:14;2.80;99.90
72440;DHT22;60446;50.752;4.352;2024-03-08T01:36:41;2.80;99.90
72440;DHT22;60446;50.752;4.352;2024-03-08T01:39:09;2.80;99.90
72440;DHT22;60446;50.752;4.352;2024-03-08T01:41:36;2.80;99.90
72440;DHT22;60446;50.752;4.352;2024-03-08T01:44:04;2.80;99.90
72440;DHT22;60446;50.752;4.352;2024-03-08T01:46:34;2.70;99.90
72440;DHT22;60446;50.752;4.352;2024-03-08T01:49:02;2.70;99.90
72440;DHT22;60446;50.752;4.352;2024-03-08T01:51:30;2.70;99.90
72440;DHT22;60446;50.752;4.352;2024-03-08T01:53:58;2.70;99.90
72440;DHT22;60446;50.752;4.352;2024-03-08T01:56:27;2.70;99.90
72440;DHT22;60446;50.752;4.352;2024-03-08T01:58:55;2.70;99.90
72440;DHT22;60446;50.752;4.352;2024-03-08T02:01:22;2.70;99.90
72440;DHT22;60446;50.752;4.352;2024-03-08T02:03:51;2.70;99.90
72440;DHT22;60446;50.752;4.352;2024-03-08T02:06:18;2.70;99.90
72440;DHT22;60446;50.752;4.352;2024-03-08T02:08:46;2.70;99.90
72440;DHT22;60446;50.752;4.352;2024-03-08T02:11:14;2.70;99.90
72440;DHT22;60446;50.752;4.352;2024-03-08T02:13:42;2.60;99.90
72440;DHT22;60446;50.752;4.352;2024-03-08T02:16:10;2.60;99.90
72440;DHT22;60446;50.752;4.352;2024-03-08T02:18:37;2.50;99.90
72440;DHT22;60446;50.752;4.352;2024-03-08T02:21:07;2.50;99.90
72440;DHT22;60446;50.752;4.352;2024-03-08T02:23:36;2.50;99.90
72440;DHT22;60446;50.752;4.352;2024-03-08T02:26:04;2.50;99.90
72440;DHT22;60446;50.752;4.352;2024-03-08T02:28:35;2.50;99.90
72440;DHT22;60446;50.752;4.352;2024-03-08T02:31:03;2.50;99.90
72440;DHT22;60446;50.752;4.352;2024-03-08T02:33:35;2.40;99.90
72440;DHT22;60446;50.752;4.352;2024-03-08T02:36:03;2.40;99.90
72440;DHT22;60446;50.752;4.352;2024-03-08T02:38:33;2.40;99.90
72440;DHT22;60446;50.752;4.352;2024-03-08T02:41:00;2.40;99.90
72440;DHT22;60446;50.752;4.352;2024-03-08T02:43:28;2.40;99.90
72440;DHT22;60446;50.752;4.352;2024-03-08T02:45:55;2.40;99.90
72440;DHT22;60446;50.752;4.352;2024-03-08T02:48:25;2.30;99.90
72440;DHT22;60446;50.752;4.352;2024-03-08T02:50:52;2.30;99.90
72440;DHT22;60446;50.752;4.352;2024-03-08T02:53:20;2.30;99.90
72440;DHT22;60446;50.752;4.352;2024-03-08T02:55:47;2.20;99.90
72440;DHT22;60446;50.752;4.352;2024-03-08T02:58:14;2.20;99.90
72440;DHT22;60446;50.752;4.352;2024-03-08T03:00:42;2.20;99.90
72440;DHT22;60446;50.752;4.352;2024-03-08T03:03:12;2.20;99.90
72440;DHT22;60446;50.752;4.352;2024-03-08T03:05:39;2.20;99.90
72440;DHT22;60446;50.752;4.352;2024-03-08T03:08:14;2.20;99.90
72440;DHT22;60446;50.752;4.352;2024-03-08T03:10:44;2.10;99.90
72440;DHT22;60446;50.752;4.352;2024-03-08T03:13:11;2.10;99.90
72440;DHT22;60446;50.752;4.352;2024-03-08T03:15:39;2.10;99.90
72440;DHT22;60446;50.752;4.352;2024-03-08T03:18:09;2.10;99.90
72440;DHT22;60446;50.752;4.352;2024-03-08T03:20:36;2.00;99.90
72440;DHT22;60446;50.752;4.352;2024-03-08T03:23:09;2.10;99.90
72440;DHT22;60446;50.752;4.352;2024-03-08T03:25:36;2.00;99.90
72440;DHT22;60446;50.752;4.352;2024-03-08T03:28:09;2.00;99.90
72440;DHT22;60446;50.752;4.352;2024-03-08T03:30:38;2.00;99.90
72440;DHT22;60446;50.752;4.352;2024-03-08T03:33:08;1.90;99.90
72440;DHT22;60446;50.752;4.352;2024-03-08T03:35:37;1.90;99.90
72440;DHT22;60446;50.752;4.352;2024-03-08T03:38:05;1.90;99.90
72440;DHT22;60446;50.752;4.352;2024-03-08T03:40:33;1.90;99.90
72440;DHT22;60446;50.752;4.352;2024-03-08T03:43:01;1.90;99.90
72440;DHT22;60446;50.752;4.352;2024-03-08T03:45:30;1.80;99.90
72440;DHT22;60446;50.752;4.352;2024-03-08T03:48:07;1.80;99.90
72440;DHT22;60446;50.752;4.352;2024-03-08T03:50:39;1.80;99.90
72440;DHT22;60446;50.752;4.352;2024-03-08T03:53:07;1.80;99.90
72440;DHT22;60446;50.752;4.352;2024-03-08T03:55:37;1.80;99.90
72440;DHT22;60446;50.752;4.352;2024-03-08T03:58:07;1.80;99.90
72440;DHT22;60446;50.752;4.352;2024-03-08T04:00:38;1.80;99.90
72440;DHT22;60446;50.752;4.352;2024-03-08T04:03:06;1.80;99.90
72440;DHT22;60446;50.752;4.352;2024-03-08T04:05:34;1.80;99.90
72440;DHT22;60446;50.752;4.352;2024-03-08T04:08:02;1.80;99.90
72440;DHT22;60446;50.752;4.352;2024-03-08T04:10:30;1.70;99.90
72440;DHT22;60446;50.752;4.352;2024-03-08T04:12:57;1.70;99.90
72440;DHT22;60446;50.752;4.352;2024-03-08T04:15:25;1.70;99.90
72440;DHT22;60446;50.752;4.352;2024-03-08T04:17:52;1.70;99.90
72440;DHT22;60446;50.752;4.352;2024-03-08T04:20:20;1.70;99.90
72440;DHT22;60446;50.752;4.352;2024-03-08T04:22:48;1.60;99.90
72440;DHT22;60446;50.752;4.352;2024-03-08T04:25:16;1.60;99.90
72440;DHT22;60446;50.752;4.352;2024-03-08T04:27:44;1.60;99.90
72440;DHT22;60446;50.752;4.352;2024-03-08T04:30:12;1.50;99.90
72440;DHT22;60446;50.752;4.352;2024-03-08T04:32:40;1.50;99.90
72440;DHT22;60446;50.752;4.352;2024-03-08T04:35:08;1.40;99.90
72440;DHT22;60446;50.752;4.352;2024-03-08T04:37:36;1.50;99.90
72440;DHT22;60446;50.752;4.352;2024-03-08T04:40:03;1.50;99.90
72440;DHT22;60446;50.752;4.352;2024-03-08T04:42:32;1.50;99.90
72440;DHT22;60446;50.752;4.352;2024-03-08T04:45:00;1.40;99.90
72440;DHT22;60446;50.752;4.352;2024-03-08T04:47:27;1.40;99.90
72440;DHT22;60446;50.752;4.352;2024-03-08T04:49:55;1.40;99.90
72440;DHT22;60446;50.752;4.352;2024-03-08T04:52:23;1.40;99.90
72440;DHT22;60446;50.752;4.352;2024-03-08T04:54:50;1.40;99.90
72440;DHT22;60446;50.752;4.352;2024-03-08T04:57:17;1.30;99.90
72440;DHT22;60446;50.752;4.352;2024-03-08T04:59:46;1.30;99.90
72440;DHT22;60446;50.752;4.352;2024-03-08T05:02:13;1.40;99.90
72440;DHT22;60446;50.752;4.352;2024-03-08T05:04:41;1.30;99.90
72440;DHT22;60446;50.752;4.352;2024-03-08T05:07:10;1.40;99.90
72440;DHT22;60446;50.752;4.352;2024-03-08T05:09:41;1.30;99.90
72440;DHT22;60446;50.752;4.352;2024-03-08T05:12:10;1.30;99.90
72440;DHT22;60446;50.752;4.352;2024-03-08T05:14:38;1.30;99.90
72440;DHT22;60446;50.752;4.352;2024-03-08T05:17:06;1.30;99.90
72440;DHT22;60446;50.752;4.352;2024-03-08T05:19:33;1.20;99.90
72440;DHT22;60446;50.752;4.352;2024-03-08T05:22:01;1.20;99.90
72440;DHT22;60446;50.752;4.352;2024-03-08T05:24:30;1.20;99.90
72440;DHT22;60446;50.752;4.352;2024-03-08T05:26:58;1.20;99.90
72440;DHT22;60446;50.752;4.352;2024-03-08T05:29:27;1.20;99.90
72440;DHT22;60446;50.752;4.352;2024-03-08T05:31:59;1.20;99.90
72440;DHT22;60446;50.752;4.352;2024-03-08T05:34:26;1.20;99.90
72440;DHT22;60446;50.752;4.352;2024-03-08T05:36:55;1.10;99.90
72440;DHT22;60446;50.752;4.352;2024-03-08T05:39:23;1.10;99.90
72440;DHT22;60446;50.752;4.352;2024-03-08T05:41:51;1.10;99.90
72440;DHT22;60446;50.752;4.352;2024-03-08T05:44:18;1.10;99.90
72440;DHT22;60446;50.752;4.352;2024-03-08T05:46:46;1.10;99.90
72440;DHT22;60446;50.752;4.352;2024-03-08T05:49:14;1.10;99.90
72440;DHT22;60446;50.752;4.352;2024-03-08T05:51:42;1.10;99.90
72440;DHT22;60446;50.752;4.352;2024-03-08T05:54:11;1.00;99.90
72440;DHT22;60446;50.752;4.352;2024-03-08T05:56:43;1.00;99.90
72440;DHT22;60446;50.752;4.352;2024-03-08T05:59:11;1.00;99.90
72440;DHT22;60446;50.752;4.352;2024-03-08T06:01:39;0.90;99.90
72440;DHT22;60446;50.752;4.352;2024-03-08T06:04:09;1.00;99.90
72440;DHT22;60446;50.752;4.352;2024-03-08T06:06:39;0.90;99.90
72440;DHT22;60446;50.752;4.352;2024-03-08T06:09:08;0.90;99.90
72440;DHT22;60446;50.752;4.352;2024-03-08T06:11:39;0.90;99.90
72440;DHT22;60446;50.752;4.352;2024-03-08T06:14:08;0.90;99.90
72440;DHT22;60446;50.752;4.352;2024-03-08T06:16:35;0.90;99.90
72440;DHT22;60446;50.752;4.352;2024-03-08T06:19:03;0.90;99.90
72440;DHT22;60446;50.752;4.352;2024-03-08T06:21:30;0.90;99.90
72440;DHT22;60446;50.752;4.352;2024-03-08T06:23:59;0.90;99.90
72440;DHT22;60446;50.752;4.352;2024-03-08T06:26:27;0.80;99.90
72440;DHT22;60446;50.752;4.352;2024-03-08T06:28:59;0.90;99.90
72440;DHT22;60446;50.752;4.352;2024-03-08T06:31:27;0.90;99.90
72440;DHT22;60446;50.752;4.352;2024-03-08T06:33:54;1.00;99.90
72440;DHT22;60446;50.752;4.352;2024-03-08T06:36:23;0.90;99.90
72440;DHT22;60446;50.752;4.352;2024-03-08T06:38:51;1.00;99.90
72440;DHT22;60446;50.752;4.352;2024-03-08T06:41:19;1.00;99.90
72440;DHT22;60446;50.752;4.352;2024-03-08T06:43:47;0.90;99.90
72440;DHT22;60446;50.752;4.352;2024-03-08T06:46:18;1.00;99.90
72440;DHT22;60446;50.752;4.352;2024-03-08T06:48:48;0.90;99.90
72440;DHT22;60446;50.752;4.352;2024-03-08T06:51:17;1.00;99.90
72440;DHT22;60446;50.752;4.352;2024-03-08T06:53:45;1.00;99.90
72440;DHT22;60446;50.752;4.352;2024-03-08T06:56:13;1.00;99.90
72440;DHT22;60446;50.752;4.352;2024-03-08T06:58:40;1.10;99.90
72440;DHT22;60446;50.752;4.352;2024-03-08T07:01:07;1.10;99.90
72440;DHT22;60446;50.752;4.352;2024-03-08T07:03:42;1.20;99.90
72440;DHT22;60446;50.752;4.352;2024-03-08T07:06:12;1.20;99.90
72440;DHT22;60446;50.752;4.352;2024-03-08T07:08:42;1.20;99.90
72440;DHT22;60446;50.752;4.352;2024-03-08T07:11:10;1.20;99.90
72440;DHT22;60446;50.752;4.352;2024-03-08T07:13:37;1.30;99.90
72440;DHT22;60446;50.752;4.352;2024-03-08T07:16:05;1.30;99.90
72440;DHT22;60446;50.752;4.352;2024-03-08T07:18:36;1.30;99.90
72440;DHT22;60446;50.752;4.352;2024-03-08T07:21:07;1.40;99.90
72440;DHT22;60446;50.752;4.352;2024-03-08T07:23:34;1.40;99.90
72440;DHT22;60446;50.752;4.352;2024-03-08T07:26:23;1.50;99.90
72440;DHT22;60446;50.752;4.352;2024-03-08T07:28:50;1.50;99.90
72440;DHT22;60446;50.752;4.352;2024-03-08T07:31:17;1.50;99.90
72440;DHT22;60446;50.752;4.352;2024-03-08T07:34:05;1.60;99.90
72440;DHT22;60446;50.752;4.352;2024-03-08T07:36:34;1.60;99.90
72440;DHT22;60446;50.752;4.352;2024-03-08T07:39:02;1.70;99.90
72440;DHT22;60446;50.752;4.352;2024-03-08T07:41:34;1.80;99.90
72440;DHT22;60446;50.752;4.352;2024-03-08T07:44:09;1.80;99.90
72440;DHT22;60446;50.752;4.352;2024-03-08T07:46:36;1.80;99.90
72440;DHT22;60446;50.752;4.352;2024-03-08T07:49:05;1.90;99.90
72440;DHT22;60446;50.752;4.352;2024-03-08T07:51:33;2.00;99.90
72440;DHT22;60446;50.752;4.352;2024-03-08T07:54:01;2.00;99.90
72440;DHT22;60446;50.752;4.352;2024-03-08T07:56:32;2.10;99.90
72440;DHT22;60446;50.752;4.352;2024-03-08T07:59:00;2.20;99.90
72440;DHT22;60446;50.752;4.352;2024-03-08T08:01:28;2.20;99.90
72440;DHT22;60446;50.752;4.352;2024-03-08T08:03:57;2.30;99.90
72440;DHT22;60446;50.752;4.352;2024-03-08T08:06:24;2.40;99.90
72440;DHT22;60446;50.752;4.352;2024-03-08T08:08:52;2.50;99.90
72440;DHT22;60446;50.752;4.352;2024-03-08T08:11:20;2.60;99.90
72440;DHT22;60446;50.752;4.352;2024-03-08T08:13:47;2.60;99.90
72440;DHT22;60446;50.752;4.352;2024-03-08T08:16:15;2.70;99.90
72440;DHT22;60446;50.752;4.352;2024-03-08T08:18:42;2.80;99.90
72440;DHT22;60446;50.752;4.352;2024-03-08T08:21:10;2.80;99.90
72440;DHT22;60446;50.752;4.352;2024-03-08T08:23:38;2.90;99.90
72440;DHT22;60446;50.752;4.352;2024-03-08T08:26:07;2.90;99.90
72440;DHT22;60446;50.752;4.352;2024-03-08T08:28:34;2.90;99.90
72440;DHT22;60446;50.752;4.352;2024-03-08T08:31:02;3.00;99.90
72440;DHT22;60446;50.752;4.352;2024-03-08T08:33:32;3.10;99.90
72440;DHT22;60446;50.752;4.352;2024-03-08T08:36:00;3.20;99.90
72440;DHT22;60446;50.752;4.352;2024-03-08T08:38:27;3.30;99.90
72440;DHT22;60446;50.752;4.352;2024-03-08T08:40:55;3.30;99.90
72440;DHT22;60446;50.752;4.352;2024-03-08T08:43:23;3.40;99.90
72440;DHT22;60446;50.752;4.352;2024-03-08T08:45:52;3.50;99.90
72440;DHT22;60446;50.752;4.352;2024-03-08T08:48:21;3.60;99.90
72440;DHT22;60446;50.752;4.352;2024-03-08T08:50:49;3.60;99.90
72440;DHT22;60446;50.752;4.352;2024-03-08T08:53:17;3.70;99.90
72440;DHT22;60446;50.752;4.352;2024-03-08T08:55:45;3.80;99.90
72440;DHT22;60446;50.752;4.352;2024-03-08T08:58:13;3.90;99.90
72440;DHT22;60446;50.752;4.352;2024-03-08T09:00:40;3.90;99.90
72440;DHT22;60446;50.752;4.352;2024-03-08T09:03:08;4.00;99.90
72440;DHT22;60446;50.752;4.352;2024-03-08T09:05:36;4.10;99.90
72440;DHT22;60446;50.752;4.352;2024-03-08T09:08:06;4.10;99.90
72440;DHT22;60446;50.752;4.352;2024-03-08T09:10:34;4.20;99.90
72440;DHT22;60446;50.752;4.352;2024-03-08T09:13:02;4.20;99.90
72440;DHT22;60446;50.752;4.352;2024-03-08T09:15:31;4.30;99.90
72440;DHT22;60446;50.752;4.352;2024-03-08T09:17:58;4.50;99.90
72440;DHT22;60446;50.752;4.352;2024-03-08T09:20:26;4.60;99.90
72440;DHT22;60446;50.752;4.352;2024-03-08T09:22:53;4.60;99.90
72440;DHT22;60446;50.752;4.352;2024-03-08T09:25:22;4.70;99.90
72440;DHT22;60446;50.752;4.352;2024-03-08T09:27:49;4.80;99.90
72440;DHT22;60446;50.752;4.352;2024-03-08T09:30:16;4.90;99.90
72440;DHT22;60446;50.752;4.352;2024-03-08T09:32:44;5.00;99.90
72440;DHT22;60446;50.752;4.352;2024-03-08T09:35:12;5.10;99.90
72440;DHT22;60446;50.752;4.352;2024-03-08T09:37:39;5.10;99.90
72440;DHT22;60446;50.752;4.352;2024-03-08T09:40:07;5.10;99.90
72440;DHT22;60446;50.752;4.352;2024-03-08T09:42:42;5.20;99.90
72440;DHT22;60446;50.752;4.352;2024-03-08T09:45:10;5.40;99.90
72440;DHT22;60446;50.752;4.352;2024-03-08T09:47:43;5.50;99.90
72440;DHT22;60446;50.752;4.352;2024-03-08T09:50:11;5.50;99.90
72440;DHT22;60446;50.752;4.352;2024-03-08T09:52:43;5.60;99.90
72440;DHT22;60446;50.752;4.352;2024-03-08T09:55:16;5.70;99.90
72440;DHT22;60446;50.752;4.352;2024-03-08T09:57:51;5.80;99.90
72440;DHT22;60446;50.752;4.352;2024-03-08T10:00:38;5.90;99.90
72440;DHT22;60446;50.752;4.352;2024-03-08T10:03:06;5.90;99.90
72440;DHT22;60446;50.752;4.352;2024-03-08T10:05:33;6.10;99.90
72440;DHT22;60446;50.752;4.352;2024-03-08T10:08:00;6.10;99.90
72440;DHT22;60446;50.752;4.352;2024-03-08T10:10:28;6.30;99.90
72440;DHT22;60446;50.752;4.352;2024-03-08T10:12:56;6.30;99.90
72440;DHT22;60446;50.752;4.352;2024-03-08T10:15:23;6.30;99.90
72440;DHT22;60446;50.752;4.352;2024-03-08T10:17:51;6.40;99.90
72440;DHT22;60446;50.752;4.352;2024-03-08T10:20:20;6.50;99.90
72440;DHT22;60446;50.752;4.352;2024-03-08T10:22:47;6.60;99.90
72440;DHT22;60446;50.752;4.352;2024-03-08T10:25:33;6.80;99.90
72440;DHT22;60446;50.752;4.352;2024-03-08T10:28:05;6.70;99.90
72440;DHT22;60446;50.752;4.352;2024-03-08T10:30:33;6.70;99.90
72440;DHT22;60446;50.752;4.352;2024-03-08T10:33:00;6.90;99.90
72440;DHT22;60446;50.752;4.352;2024-03-08T10:35:29;7.10;99.90
72440;DHT22;60446;50.752;4.352;2024-03-08T10:37:57;7.20;99.90
72440;DHT22;60446;50.752;4.352;2024-03-08T10:40:30;7.40;99.90
72440;DHT22;60446;50.752;4.352;2024-03-08T10:42:59;7.40;99.90
72440;DHT22;60446;50.752;4.352;2024-03-08T10:45:37;7.50;99.90
72440;DHT22;60446;50.752;4.352;2024-03-08T10:48:31;7.50;99.90
72440;DHT22;60446;50.752;4.352;2024-03-08T10:51:04;7.50;99.90
72440;DHT22;60446;50.752;4.352;2024-03-08T10:53:34;7.50;99.90
72440;DHT22;60446;50.752;4.352;2024-03-08T10:56:04;7.60;99.90
72440;DHT22;60446;50.752;4.352;2024-03-08T10:58:31;7.80;99.90
72440;DHT22;60446;50.752;4.352;2024-03-08T11:01:01;7.80;99.90
72440;DHT22;60446;50.752;4.352;2024-03-08T11:09:11;7.70;99.90
72440;DHT22;60446;50.752;4.352;2024-03-08T11:12:27;7.90;99.90
72440;DHT22;60446;50.752;4.352;2024-03-08T11:15:00;8.00;99.90
72440;DHT22;60446;50.752;4.352;2024-03-08T11:22:53;8.30;99.90
72440;DHT22;60446;50.752;4.352;2024-03-08T11:25:41;8.50;99.90
72440;DHT22;60446;50.752;4.352;2024-03-08T11:28:23;8.80;99.90
72440;DHT22;60446;50.752;4.352;2024-03-08T11:33:31;9.00;99.90
72440;DHT22;60446;50.752;4.352;2024-03-08T11:38:45;8.70;99.90
72440;DHT22;60446;50.752;4.352;2024-03-08T11:41:24;9.00;99.90
72440;DHT22;60446;50.752;4.352;2024-03-08T11:44:03;9.20;99.10
72440;DHT22;60446;50.752;4.352;2024-03-08T11:46:34;9.20;99.90
72440;DHT22;60446;50.752;4.352;2024-03-08T11:49:01;9.30;99.40
72440;DHT22;60446;50.752;4.352;2024-03-08T11:51:31;9.40;98.70
72440;DHT22;60446;50.752;4.352;2024-03-08T11:53:59;9.40;98.30
72440;DHT22;60446;50.752;4.352;2024-03-08T11:56:27;9.30;99.90
72440;DHT22;60446;50.752;4.352;2024-03-08T11:58:55;9.20;99.90
72440;DHT22;60446;50.752;4.352;2024-03-08T12:01:25;9.20;99.90
72440;DHT22;60446;50.752;4.352;2024-03-08T12:03:57;9.30;99.90
72440;DHT22;60446;50.752;4.352;2024-03-08T12:06:37;9.30;99.90
72440;DHT22;60446;50.752;4.352;2024-03-08T12:09:09;9.30;99.90
72440;DHT22;60446;50.752;4.352;2024-03-08T12:11:37;9.30;98.50
72440;DHT22;60446;50.752;4.352;2024-03-08T12:14:06;9.40;99.90
72440;DHT22;60446;50.752;4.352;2024-03-08T12:16:33;9.60;99.90
72440;DHT22;60446;50.752;4.352;2024-03-08T12:19:00;9.70;99.00
72440;DHT22;60446;50.752;4.352;2024-03-08T12:21:32;9.60;98.20
72440;DHT22;60446;50.752;4.352;2024-03-08T12:24:09;9.60;97.90
72440;DHT22;60446;50.752;4.352;2024-03-08T12:26:38;9.80;99.90
72440;DHT22;60446;50.752;4.352;2024-03-08T12:29:27;9.90;99.60
72440;DHT22;60446;50.752;4.352;2024-03-08T12:31:57;10.20;97.10
72440;DHT22;60446;50.752;4.352;2024-03-08T12:34:28;10.10;96.90
72440;DHT22;60446;50.752;4.352;2024-03-08T12:36:55;10.20;98.00
72440;DHT22;60446;50.752;4.352;2024-03-08T12:39:23;10.40;96.90
72440;DHT22;60446;50.752;4.352;2024-03-08T12:41:54;10.50;95.90
72440;DHT22;60446;50.752;4.352;2024-03-08T12:44:24;10.40;97.40
72440;DHT22;60446;50.752;4.352;2024-03-08T12:46:52;10.60;97.50
72440;DHT22;60446;50.752;4.352;2024-03-08T12:49:21;10.60;96.20
72440;DHT22;60446;50.752;4.352;2024-03-08T12:51:52;10.50;95.50
72440;DHT22;60446;50.752;4.352;2024-03-08T12:54:20;10.40;98.20
72440;DHT22;60446;50.752;4.352;2024-03-08T12:56:51;10.60;97.90
72440;DHT22;60446;50.752;4.352;2024-03-08T12:59:22;10.90;96.60
72440;DHT22;60446;50.752;4.352;2024-03-08T13:01:50;11.00;97.00
72440;DHT22;60446;50.752;4.352;2024-03-08T13:04:20;11.20;94.20
72440;DHT22;60446;50.752;4.352;2024-03-08T13:06:48;11.20;93.80
72440;DHT22;60446;50.752;4.352;2024-03-08T13:09:21;11.00;96.60
72440;DHT22;60446;50.752;4.352;2024-03-08T13:11:49;11.00;93.50
72440;DHT22;60446;50.752;4.352;2024-03-08T13:14:16;11.00;94.10
72440;DHT22;60446;50.752;4.352;2024-03-08T13:16:43;11.10;94.80
72440;DHT22;60446;50.752;4.352;2024-03-08T13:19:15;11.00;95.30
72440;DHT22;60446;50.752;4.352;2024-03-08T13:21:43;11.10;96.40
72440;DHT22;60446;50.752;4.352;2024-03-08T13:24:11;11.30;94.10
72440;DHT22;60446;50.752;4.352;2024-03-08T13:26:41;11.30;94.50
72440;DHT22;60446;50.752;4.352;2024-03-08T13:29:10;11.30;94.80
72440;DHT22;60446;50.752;4.352;2024-03-08T13:31:37;11.20;93.70
72440;DHT22;60446;50.752;4.352;2024-03-08T13:34:04;11.10;94.80
72440;DHT22;60446;50.752;4.352;2024-03-08T13:36:32;11.30;95.90
72440;DHT22;60446;50.752;4.352;2024-03-08T13:39:06;11.60;93.00
72440;DHT22;60446;50.752;4.352;2024-03-08T13:41:42;11.60;92.80
72440;DHT22;60446;50.752;4.352;2024-03-08T13:44:09;11.60;92.00
72440;DHT22;60446;50.752;4.352;2024-03-08T13:46:37;11.50;93.10
72440;DHT22;60446;50.752;4.352;2024-03-08T13:49:05;11.40;88.90
72440;DHT22;60446;50.752;4.352;2024-03-08T13:51:36;11.30;87.90
72440;DHT22;60446;50.752;4.352;2024-03-08T13:54:04;11.30;87.70
72440;DHT22;60446;50.752;4.352;2024-03-08T13:56:34;11.40;87.80
72440;DHT22;60446;50.752;4.352;2024-03-08T13:59:01;11.70;86.00
72440;DHT22;60446;50.752;4.352;2024-03-08T14:01:29;11.90;86.70
72440;DHT22;60446;50.752;4.352;2024-03-08T14:03:57;12.20;85.00
72440;DHT22;60446;50.752;4.352;2024-03-08T14:06:24;12.10;82.40
72440;DHT22;60446;50.752;4.352;2024-03-08T14:08:57;12.00;83.30
72440;DHT22;60446;50.752;4.352;2024-03-08T14:11:24;11.90;80.80
72440;DHT22;60446;50.752;4.352;2024-03-08T14:13:52;11.90;84.10
72440;DHT22;60446;50.752;4.352;2024-03-08T14:16:20;12.10;83.70
72440;DHT22;60446;50.752;4.352;2024-03-08T14:18:48;12.30;82.60
72440;DHT22;60446;50.752;4.352;2024-03-08T14:21:15;12.40;82.00
72440;DHT22;60446;50.752;4.352;2024-03-08T14:23:44;12.40;78.60
72440;DHT22;60446;50.752;4.352;2024-03-08T14:26:14;12.40;80.80
72440;DHT22;60446;50.752;4.352;2024-03-08T14:28:41;12.30;79.20
72440;DHT22;60446;50.752;4.352;2024-03-08T14:31:08;12.20;78.90
72440;DHT22;60446;50.752;4.352;2024-03-08T14:33:41;12.30;80.00
72440;DHT22;60446;50.752;4.352;2024-03-08T14:36:09;12.20;77.50
72440;DHT22;60446;50.752;4.352;2024-03-08T14:38:40;12.20;79.50
72440;DHT22;60446;50.752;4.352;2024-03-08T14:41:08;12.60;77.10
72440;DHT22;60446;50.752;4.352;2024-03-08T14:43:35;12.70;78.60
72440;DHT22;60446;50.752;4.352;2024-03-08T14:46:03;12.60;76.40
72440;DHT22;60446;50.752;4.352;2024-03-08T14:48:30;12.50;77.00
72440;DHT22;60446;50.752;4.352;2024-03-08T14:50:58;12.50;76.20
72440;DHT22;60446;50.752;4.352;2024-03-08T14:53:25;12.70;79.40
72440;DHT22;60446;50.752;4.352;2024-03-08T14:55:54;12.80;77.10
72440;DHT22;60446;50.752;4.352;2024-03-08T14:58:21;12.80;76.50
72440;DHT22;60446;50.752;4.352;2024-03-08T15:00:51;12.60;73.80
72440;DHT22;60446;50.752;4.352;2024-03-08T15:03:22;12.70;75.70
72440;DHT22;60446;50.752;4.352;2024-03-08T15:05:53;12.70;75.00
72440;DHT22;60446;50.752;4.352;2024-03-08T15:08:20;12.60;74.90
72440;DHT22;60446;50.752;4.352;2024-03-08T15:10:50;12.60;73.90
72440;DHT22;60446;50.752;4.352;2024-03-08T15:13:21;12.50;74.50
72440;DHT22;60446;50.752;4.352;2024-03-08T15:15:51;12.30;73.70
72440;DHT22;60446;50.752;4.352;2024-03-08T15:18:23;12.30;74.40
72440;DHT22;60446;50.752;4.352;2024-03-08T15:20:52;12.20;74.20
72440;DHT22;60446;50.752;4.352;2024-03-08T15:23:20;12.20;74.00
72440;DHT22;60446;50.752;4.352;2024-03-08T15:25:48;12.20;76.60
72440;DHT22;60446;50.752;4.352;2024-03-08T15:28:18;12.10;74.50
72440;DHT22;60446;50.752;4.352;2024-03-08T15:30:54;12.10;75.80
72440;DHT22;60446;50.752;4.352;2024-03-08T15:33:22;12.10;76.20
72440;DHT22;60446;50.752;4.352;2024-03-08T15:35:54;12.10;77.00
72440;DHT22;60446;50.752;4.352;2024-03-08T15:38:36;12.10;75.50
72440;DHT22;60446;50.752;4.352;2024-03-08T15:41:07;12.10;76.40
72440;DHT22;60446;50.752;4.352;2024-03-08T15:43:40;12.00;74.40
72440;DHT22;60446;50.752;4.352;2024-03-08T15:46:08;12.00;75.00
72440;DHT22;60446;50.752;4.352;2024-03-08T15:48:38;12.20;76.10
72440;DHT22;60446;50.752;4.352;2024-03-08T15:51:07;12.50;75.80
72440;DHT22;60446;50.752;4.352;2024-03-08T15:53:37;12.80;73.30
72440;DHT22;60446;50.752;4.352;2024-03-08T15:56:05;13.00;73.30
72440;DHT22;60446;50.752;4.352;2024-03-08T15:58:34;13.00;73.20
72440;DHT22;60446;50.752;4.352;2024-03-08T16:01:06;13.20;72.70
72440;DHT22;60446;50.752;4.352;2024-03-08T16:03:33;13.40;71.40
72440;DHT22;60446;50.752;4.352;2024-03-08T16:06:01;13.30;72.50
72440;DHT22;60446;50.752;4.352;2024-03-08T16:08:31;12.90;72.50
72440;DHT22;60446;50.752;4.352;2024-03-08T16:11:00;12.40;75.60